This is the latest recevied weather packets stored in our database for station/object OK1PMP-6. If no packets are shown the sender has not sent any weather packets the latest 10 day(s).
| Time | Temp. | Humidity | Pressure | Rain* | Wind** | Luminosity | Snow |
|---|---|---|---|---|---|---|---|
| 1777567124 | 15.56° C | 36% | 1031.5 hPa | 0 mm | - | 51 W/m² | - |
| 1777566229 | 16.11° C | 33% | 1031.5 hPa | 0 mm | - | 43 W/m² | - |
| 1777565324 | 16.67° C | 34% | 1031.5 hPa | 0 mm | - | 41 W/m² | - |
| 1777564442 | 16.67° C | 33% | 1031.4 hPa | 0 mm | - | 44 W/m² | - |
| 1777563550 | 17.22° C | 31% | 1031.6 hPa | 0 mm | - | 59 W/m² | - |
| 1777562623 | 17.22° C | 31% | 1031.7 hPa | 0 mm | - | 97 W/m² | - |
| 1777561723 | 15.56° C | 34% | 1031.8 hPa | 0 mm | - | 106 W/m² | - |
| 1777560822 | 15.56° C | 31% | 1032 hPa | 0 mm | - | 155 W/m² | - |
| 1777559927 | 15.56° C | 32% | 1032 hPa | 0 mm | - | 171 W/m² | - |
| 1777559024 | 15.56° C | 30% | 1032.1 hPa | 0 mm | - | 139 W/m² | - |
| 1777558125 | 17.78° C | 26% | 1032.2 hPa | 0 mm | - | 162 W/m² | - |
| 1777557224 | 19.44° C | 27% | 1032.4 hPa | 0 mm | - | 357 W/m² | - |
| 1777556324 | 18.89° C | 28% | 1032.4 hPa | 0 mm | - | 597 W/m² | - |
| 1777555424 | 17.22° C | 29% | 1032.6 hPa | 0 mm | - | 426 W/m² | - |
| 1777554524 | 18.33° C | 27% | 1032.8 hPa | 0 mm | - | 710 W/m² | - |
| 1777553629 | 18.33° C | 26% | 1032.6 hPa | 0 mm | - | 530 W/m² | - |
| 1777552726 | 17.78° C | 25% | 1033.2 hPa | 0 mm | - | 664 W/m² | - |
| 1777551826 | 16.67° C | 27% | 1033.2 hPa | 0 mm | - | 655 W/m² | - |
| 1777550926 | 16.67° C | 26% | 1033.3 hPa | 0 mm | - | 682 W/m² | - |
| 1777550029 | 16.11° C | 30% | 1033.4 hPa | 0 mm | - | 680 W/m² | - |
| 1777549126 | 15° C | 30% | 1033.6 hPa | 0 mm | - | 692 W/m² | - |
| 1777548226 | 15° C | 29% | 1033.9 hPa | 0 mm | - | 700 W/m² | - |
| 1777547329 | 14.44° C | 28% | 1034 hPa | 0 mm | - | 713 W/m² | - |
| 1777546426 | 13.89° C | 29% | 1034.1 hPa | 0 mm | - | 715 W/m² | - |
| 1777545528 | 12.78° C | 33% | 1034.7 hPa | 0 mm | - | 716 W/m² | - |
* Rain latest hour (hover to see other rain measurements)
** Current wind speed in m/s (hover to see current wind gust speed)